Time;durP1;ratioP1;P1;durP2;ratioP2;P2;SDS_P1;SDS_P2;PMS_P1;PMS_P2;Temp;Humidity;BMP_temperature;BMP_pressure;BME280_temperature;BME280_humidity;BME280_pressure;Samples;Min_cycle;Max_cycle;Signal;HPM_P1;HPM_P2
2021/04/09 00:01:00;;;;;;;14.70;11.95;;;;;;;18.19;32.40;101338.28;31081806;28;20029;-59
2021/04/09 00:16:01;;;;;;;17.33;13.27;;;;;;;18.13;32.64;101343.97;31082150;28;20041;-60
2021/04/09 00:31:01;;;;;;;17.23;13.73;;;;;;;18.06;33.05;101316.44;31071572;28;20037;-58
2021/04/09 00:46:02;;;;;;;18.15;14.20;;;;;;;18.00;33.44;101291.44;31110378;28;20095;-57
2021/04/09 01:01:04;;;;;;;20.30;16.23;;;;;;;17.93;33.67;101273.56;31094006;28;20033;-60
2021/04/09 01:16:06;;;;;;;18.98;15.43;;;;;;;17.86;33.75;101249.47;31054273;28;20123;-58
2021/04/09 01:31:33;;;;;;;22.13;16.10;;;;;;;17.79;33.62;101229.81;31109001;28;20492;-60
2021/04/09 01:46:34;;;;;;;20.15;16.17;;;;;;;17.72;33.80;101204.91;31091446;28;20474;-59
2021/04/09 02:01:35;;;;;;;21.08;16.50;;;;;;;17.65;33.99;101167.72;31095786;28;20503;-59
2021/04/09 02:16:36;;;;;;;19.80;16.20;;;;;;;17.58;33.96;101158.59;31077992;28;20069;-59
2021/04/09 02:31:37;;;;;;;21.73;16.52;;;;;;;17.51;34.22;101145.06;31079369;28;20042;-58
2021/04/09 02:46:50;;;;;;;19.35;15.77;;;;;;;17.44;34.58;101120.19;31064492;28;20050;-56
2021/04/09 03:01:53;;;;;;;17.80;15.13;;;;;;;17.36;34.55;101109.38;31078591;28;20019;-59
2021/04/09 03:17:02;;;;;;;19.30;15.15;;;;;;;17.31;35.02;101093.94;31076836;28;20041;-58
2021/04/09 03:32:03;;;;;;;19.25;15.43;;;;;;;17.27;35.21;101074.13;31080144;28;20037;-58
2021/04/09 03:47:04;;;;;;;19.08;14.95;;;;;;;17.25;34.77;101055.00;31059357;28;20099;-58
2021/04/09 04:02:05;;;;;;;18.05;13.55;;;;;;;17.22;35.02;101042.06;31065598;28;20030;-58
2021/04/09 04:17:06;;;;;;;19.77;14.07;;;;;;;17.19;35.21;101033.59;31053829;28;20049;-60
2021/04/09 04:32:07;;;;;;;16.30;13.32;;;;;;;17.16;35.07;101037.28;31060359;28;20026;-61
2021/04/09 04:47:08;;;;;;;18.58;13.77;;;;;;;17.15;35.29;101031.19;31047212;28;20096;-60
2021/04/09 05:02:09;;;;;;;15.02;12.63;;;;;;;17.16;34.47;101011.03;31065150;28;20026;-60
2021/04/09 05:17:10;;;;;;;14.35;11.48;;;;;;;17.18;34.66;100996.00;31057182;28;20046;-61
2021/04/09 05:32:12;;;;;;;14.65;11.30;;;;;;;17.21;34.28;100990.50;31090858;28;20046;-60
2021/04/09 05:47:13;;;;;;;14.95;11.20;;;;;;;17.27;34.33;100987.44;31099546;28;20034;-60
2021/04/09 06:02:14;;;;;;;12.93;10.18;;;;;;;17.30;34.32;100978.47;31113295;28;20026;-61
2021/04/09 06:17:15;;;;;;;10.32;6.78;;;;;;;16.66;27.46;100969.06;31196517;28;20392;-58
2021/04/09 06:32:16;;;;;;;11.63;5.95;;;;;;;14.21;28.83;100959.97;31189934;28;20493;-60
2021/04/09 06:47:17;;;;;;;9.50;6.30;;;;;;;13.02;29.78;100973.88;31108827;28;20041;-61
2021/04/09 07:02:18;;;;;;;7.68;3.92;;;;;;;15.28;31.25;100957.56;31090395;28;20018;-59
2021/04/09 07:17:26;;;;;;;6.85;3.10;;;;;;;16.98;30.03;100946.72;31090480;28;20050;-60
2021/04/09 07:32:27;;;;;;;6.05;3.13;;;;;;;17.95;29.42;100927.97;31035834;28;20053;-61
2021/04/09 07:47:28;;;;;;;6.03;3.17;;;;;;;18.65;29.37;100927.78;31034558;28;20423;-59
2021/04/09 08:02:38;;;;;;;9.03;2.70;;;;;;;19.40;28.53;100892.59;31036052;28;20499;-59
2021/04/09 08:17:39;;;;;;;6.00;3.08;;;;;;;19.85;26.17;100879.94;31031763;28;20296;-56
2021/04/09 08:32:40;;;;;;;5.43;2.50;;;;;;;25.71;20.27;100859.13;31022109;28;20038;-56
2021/04/09 08:47:42;;;;;;;5.53;2.35;;;;;;;27.36;17.74;100855.13;31060100;28;20042;-61
2021/04/09 09:02:52;;;;;;;5.10;2.47;;;;;;;23.96;22.54;100854.97;31025794;28;20550;-59
2021/04/09 09:17:53;;;;;;;5.53;2.42;;;;;;;22.91;24.25;100848.03;31042082;28;20373;-58
2021/04/09 09:33:20;;;;;;;7.70;2.50;;;;;;;24.70;22.59;100828.53;31169033;28;20526;-59
2021/04/09 09:48:21;;;;;;;8.77;2.83;;;;;;;29.44;17.11;100803.50;31166281;28;20326;-59
2021/04/09 10:03:34;;;;;;;3.73;1.97;;;;;;;29.60;17.03;100783.59;31158824;28;20285;-59
2021/04/09 10:18:35;;;;;;;4.03;2.50;;;;;;;28.78;17.61;100785.19;31130811;28;20045;-63
2021/04/09 10:33:44;;;;;;;4.63;2.50;;;;;;;27.65;18.31;100764.53;31123792;28;20385;-62
2021/04/09 10:48:45;;;;;;;6.15;3.10;;;;;;;25.09;23.19;100756.03;31162283;28;20798;-63
2021/04/09 11:03:46;;;;;;;6.43;2.70;;;;;;;23.04;25.00;100750.38;31115532;28;20038;-62
2021/04/09 11:18:57;;;;;;;5.00;2.13;;;;;;;22.27;26.68;100730.78;31086322;28;20326;-61
2021/04/09 11:34:06;;;;;;;6.72;2.53;;;;;;;21.94;27.09;100715.41;31125366;28;20856;-61
2021/04/09 11:49:07;;;;;;;9.25;2.92;;;;;;;21.60;27.82;100723.16;31081591;28;20085;-60
2021/04/09 12:04:34;;;;;;;6.53;3.08;;;;;;;21.44;28.28;100699.16;31078624;28;20120;-59
2021/04/09 12:19:35;;;;;;;6.38;2.47;;;;;;;21.30;28.80;100689.88;31098634;28;20042;-61
2021/04/09 12:34:36;;;;;;;4.68;2.70;;;;;;;21.21;28.68;100672.25;31080854;28;20056;-61
2021/04/09 12:49:37;;;;;;;5.05;2.50;;;;;;;20.99;29.19;100674.31;31062698;28;20038;-60
2021/04/09 13:04:38;;;;;;;4.43;2.27;;;;;;;20.83;29.49;100658.25;31099758;28;20423;-60
2021/04/09 13:19:39;;;;;;;7.90;2.27;;;;;;;20.84;29.66;100654.63;31098093;28;20292;-59
2021/04/09 13:34:40;;;;;;;5.67;2.70;;;;;;;20.74;30.08;100649.38;31133909;28;20805;-61
2021/04/09 13:49:41;;;;;;;5.55;3.33;;;;;;;20.48;30.31;100638.59;31108919;28;20655;-60
2021/04/09 14:04:42;;;;;;;7.07;3.40;;;;;;;20.45;30.69;100644.97;31103594;28;20038;-59
2021/04/09 14:19:44;;;;;;;5.80;3.42;;;;;;;20.43;30.83;100646.09;31109141;28;20300;-60
2021/04/09 14:34:45;;;;;;;5.55;3.55;;;;;;;20.33;30.80;100630.28;31107415;28;20046;-59
2021/04/09 14:49:46;;;;;;;6.60;3.28;;;;;;;20.40;30.34;100646.41;31087538;28;20093;-57
2021/04/09 15:04:47;;;;;;;5.77;3.63;;;;;;;20.42;30.90;100640.00;31066009;28;20044;-59
2021/04/09 15:19:48;;;;;;;7.45;3.80;;;;;;;20.33;31.17;100635.56;31086735;28;20848;-59
2021/04/09 15:34:49;;;;;;;7.30;3.73;;;;;;;20.32;31.43;100630.41;31079482;28;20054;-60
2021/04/09 15:49:50;;;;;;;6.33;3.67;;;;;;;20.04;32.78;100627.69;31089871;28;20296;-58
2021/04/09 16:04:51;;;;;;;6.23;4.03;;;;;;;19.97;32.77;100637.13;31099450;28;20304;-60
2021/04/09 16:19:52;;;;;;;6.70;4.50;;;;;;;19.90;33.24;100641.31;31072840;28;20316;-61
2021/04/09 16:34:54;;;;;;;6.00;3.93;;;;;;;19.80;33.79;100634.22;31081414;28;20307;-61
2021/04/09 16:49:55;;;;;;;7.88;4.20;;;;;;;19.73;34.30;100627.84;31057619;28;20310;-58
2021/04/09 17:04:56;;;;;;;5.90;4.18;;;;;;;19.58;34.86;100645.00;31106549;28;20045;-60
2021/04/09 17:19:57;;;;;;;8.63;4.37;;;;;;;19.47;35.15;100645.97;31063138;28;20042;-58
2021/04/09 17:34:58;;;;;;;9.15;4.43;;;;;;;19.24;35.46;100633.03;31044375;28;20371;-58
2021/04/09 17:49:59;;;;;;;6.10;4.80;;;;;;;19.10;35.63;100641.28;31078488;28;20494;-59
2021/04/09 18:05:00;;;;;;;5.87;4.00;;;;;;;18.96;36.11;100633.75;31123591;28;20291;-61
2021/04/09 18:20:01;;;;;;;6.10;4.28;;;;;;;18.90;36.80;100645.69;31139488;28;20782;-60
2021/04/09 18:35:03;;;;;;;11.20;7.80;;;;;;;17.59;28.46;100663.53;31202907;28;20041;-61
2021/04/09 18:50:07;;;;;;;8.43;5.68;;;;;;;17.65;31.67;100663.03;31226023;28;20848;-58
2021/04/09 19:05:08;;;;;;;8.43;4.32;;;;;;;18.33;32.60;100663.63;31195521;28;20033;-59
2021/04/09 19:20:11;;;;;;;6.13;3.88;;;;;;;18.77;32.70;100669.59;31145363;28;20042;-61
2021/04/09 19:35:12;;;;;;;8.05;4.57;;;;;;;19.11;31.67;100671.13;31155656;28;20462;-59
2021/04/09 19:50:13;;;;;;;7.45;4.57;;;;;;;19.19;32.30;100671.28;31125049;28;20057;-61
2021/04/09 20:05:14;;;;;;;15.68;4.80;;;;;;;19.36;31.98;100683.00;31154695;28;20395;-60
2021/04/09 20:20:15;;;;;;;6.38;4.93;;;;;;;19.48;31.42;100675.81;31118959;28;20045;-58
2021/04/09 20:35:16;;;;;;;8.27;4.93;;;;;;;19.53;31.90;100676.22;31119782;28;20046;-58
2021/04/09 20:50:17;;;;;;;7.03;5.00;;;;;;;19.59;31.78;100671.25;31154854;28;20303;-60
2021/04/09 21:05:18;;;;;;;7.95;5.18;;;;;;;19.64;31.98;100676.94;31157017;28;20304;-61
2021/04/09 21:20:19;;;;;;;7.80;5.55;;;;;;;19.70;32.12;100680.00;31144910;28;20392;-59
2021/04/09 21:35:20;;;;;;;10.18;5.63;;;;;;;19.60;32.53;100680.81;31145593;28;20039;-59
2021/04/09 21:50:21;;;;;;;8.87;6.20;;;;;;;19.44;33.62;100662.88;31213760;28;20044;-57
2021/04/09 22:05:23;;;;;;;7.97;6.10;;;;;;;19.33;33.77;100663.00;31200869;28;20804;-60
2021/04/09 22:20:26;;;;;;;8.23;6.63;;;;;;;19.24;33.88;100662.00;31162748;28;20292;-56
2021/04/09 22:35:29;;;;;;;8.48;6.43;;;;;;;19.15;34.46;100661.97;31231780;28;20064;-57
2021/04/09 22:50:30;;;;;;;8.70;6.82;;;;;;;19.11;34.56;100647.41;31135898;28;20046;-59
2021/04/09 23:05:31;;;;;;;10.32;7.15;;;;;;;19.02;34.53;100647.22;31184112;28;20091;-59
2021/04/09 23:20:32;;;;;;;9.67;6.83;;;;;;;18.92;34.93;100638.47;31175992;28;20446;-58
2021/04/09 23:35:33;;;;;;;9.90;7.47;;;;;;;18.86;34.93;100630.28;31214468;28;20300;-58
2021/04/09 23:50:34;;;;;;;8.25;6.68;;;;;;;18.81;34.73;100626.22;31145452;28;20062;-58
